Latest Weather Observations for Sunshine Coast Airport

IDQ60901

Issued at 9:31 am EST Wednesday 16 January 2019 (issued every 10 minutes, with the page automatically refreshed every 10 minutes)

About weather observations | Map of Brisbane area stations | Latest observations for Brisbane area | Other Formats
Station Details ID: 040861 Name: SUNSHINE COAST AIRPORT Lat: -26.60 Lon: 153.09 Height: 3.42 m
Data from the previous 72 hours. | See also: Recent months at Sunshine Coast Airport
Date/Time
EST
Temp
°C
App
Temp
°C
Dew
Point
°C
Rel
Hum
%
Delta-T
°C
Wind Press
QNH
hPa
Press
MSL
hPa
Rain since
9am
mm
Dir  Spd
km/h
Gust
km/h
Spd
kts
Gust
kts
16/09:30am 27.8 28.2 19.1 59 5.6 ENE 15 20 8 11 1014.3 1014.3 0.0
16/09:00am 27.2 27.4 18.5 59 5.5 ENE 15 17 8 9 1014.5 1014.5 0.0
16/08:30am 27.5 28.7 18.2 57 5.9 ENE 9 11 5 6 1014.4 1014.4 0.0
16/08:00am 26.7 28.8 19.3 64 4.8 W 7 9 4 5 1014.5 1014.5 0.0
16/07:30am 25.4 27.5 19.3 69 3.9 SW 7 9 4 5 1014.5 1014.5 0.0
16/07:00am 23.5 25.9 20.0 81 2.3 WSW 7 9 4 5 1014.3 1014.3 0.0
16/06:30am 21.5 24.2 20.3 93 0.8 WSW 6 7 3 4 1014.1 1014.1 0.0
16/06:00am 20.7 23.1 20.0 96 0.4 W 7 7 4 4 1013.8 1013.8 0.0
16/05:30am 19.9 21.9 19.2 96 0.4 W 7 9 4 5 1013.5 1013.5 0.0
16/05:00am 20.0 22.2 19.2 95 0.5 WSW 6 7 3 4 1013.2 1013.2 0.0
16/04:30am 20.2 22.5 19.4 95 0.5 SW 6 7 3 4 1012.9 1012.9 0.0
16/04:00am 20.5 22.7 19.5 94 0.6 WSW 7 7 4 4 1012.8 1012.8 0.0
16/03:30am 20.8 23.0 19.6 93 0.8 W 7 7 4 4 1012.6 1012.6 0.0
16/03:00am 21.2 23.1 19.7 91 1.0 W 9 11 5 6 1012.7 1012.7 0.0
16/02:30am 21.5 23.6 19.4 88 1.3 WNW 7 11 4 6 1012.8 1012.8 0.0
16/02:00am 22.0 24.0 18.8 82 2.0 NW 6 9 3 5 1013.0 1013.0 0.0
16/01:30am 23.6 25.0 18.7 74 3.1 NE 9 13 5 7 1013.2 1013.2 0.0
16/01:00am 24.1 25.3 19.0 73 3.2 NE 11 17 6 9 1013.5 1013.5 0.0
16/12:30am 24.4 25.2 19.0 72 3.4 ENE 13 15 7 8 1013.9 1013.9 0.0
16/12:00am 24.5 24.9 19.1 72 3.4 ENE 15 19 8 10 1014.2 1014.2 0.0
 
Date/Time
EST
Temp
°C
App
Temp
°C
Dew
Point
°C
Rel
Hum
%
Delta-T
°C
Wind Press
QNH
hPa
Press
MSL
hPa
Rain since
9am
mm
Dir  Spd
km/h
Gust
km/h
Spd
kts
Gust
kts
15/11:30pm 24.5 24.6 19.1 72 3.4 ENE 17 22 9 12 1014.3 1014.3 0.0
15/11:00pm 24.8 25.1 19.6 73 3.3 ENE 17 22 9 12 1014.4 1014.4 0.0
15/10:30pm 24.9 25.2 19.7 73 3.4 NE 17 22 9 12 1014.5 1014.5 0.0
15/10:00pm 25.1 25.5 19.9 73 3.4 NE 17 22 9 12 1014.6 1014.6 0.0
15/09:30pm 25.1 25.4 19.7 72 3.5 ENE 17 20 9 11 1014.6 1014.6 0.0
15/09:00pm 25.1 25.8 19.7 72 3.5 ENE 15 19 8 10 1014.6 1014.6 0.0
15/08:30pm 25.0 25.3 19.6 72 3.5 NE 17 20 9 11 1014.4 1014.4 0.0
15/08:00pm 25.0 25.5 20.0 74 3.2 ENE 17 20 9 11 1014.1 1014.1 0.0
15/07:30pm 25.0 25.0 19.8 73 3.4 NE 19 24 10 13 1013.9 1013.9 0.0
15/07:00pm 25.1 24.9 19.7 72 3.5 NE 20 24 11 13 1013.7 1013.7 0.0
15/06:30pm 25.3 25.0 19.2 69 3.9 NE 19 24 10 13 1013.5 1013.5 0.0
15/06:00pm 26.0 26.0 18.9 65 4.5 NE 17 22 9 12 1013.5 1013.5 0.0
15/05:30pm 26.5 26.3 19.4 65 4.6 ENE 19 24 10 13 1013.2 1013.2 0.0
15/05:00pm 27.0 26.9 19.6 64 4.8 ENE 19 22 10 12 1013.2 1013.2 0.0
15/04:30pm 27.4 27.1 19.2 61 5.3 ENE 19 24 10 13 1013.2 1013.2 0.0
15/04:00pm 28.1 28.0 19.6 60 5.5 ENE 19 24 10 13 1013.3 1013.3 0.0
15/03:30pm 28.1 28.2 19.9 61 5.4 ENE 19 24 10 13 1013.3 1013.3 0.0
15/03:00pm 28.0 27.9 20.0 61 5.2 ENE 20 26 11 14 1013.5 1013.5 0.0
15/02:30pm 28.3 28.3 20.1 61 5.4 ENE 20 26 11 14 1013.8 1013.8 0.0
15/02:00pm 28.4 28.0 20.2 61 5.4 ENE 22 28 12 15 1014.1 1014.1 0.0
15/01:30pm 29.1 29.2 21.1 62 5.3 ENE 22 28 12 15 1014.4 1014.4 0.0
15/01:00pm 28.8 29.0 20.5 61 5.5 ENE 20 26 11 14 1015.0 1014.9 0.0
15/12:30pm 29.4 30.0 21.1 61 5.5 E 19 24 10 13 1015.3 1015.2 0.0
15/12:00pm 28.4 28.3 19.6 59 5.7 E 19 24 10 13 1015.6 1015.5 0.0
15/11:30am 28.9 29.4 20.9 62 5.3 E 19 22 10 12 1015.9 1015.8 0.0
15/11:00am 28.6 29.2 20.3 60 5.5 ESE 17 19 9 10 1016.2 1016.1 0.0
15/10:30am 28.6 30.0 20.3 60 5.5 E 13 17 7 9 1016.5 1016.4 0.0
15/10:00am 28.1 29.3 19.9 61 5.3 E 13 20 7 11 1016.7 1016.6 0.0
15/09:30am 28.2 29.7 20.5 63 5.1 E 13 15 7 8 1016.8 1016.7 0.0
15/09:00am 27.3 28.6 19.4 62 5.1 ESE 11 17 6 9 1016.7 1016.6 0.0
15/08:30am 27.2 28.5 19.3 62 5.1 ESE 11 17 6 9 1016.6 1016.5 0.0
15/08:00am 26.1 27.7 19.2 65 4.4 SE 9 17 5 9 1016.6 1016.5 0.0
15/07:30am 26.2 28.7 20.3 70 3.9 SW 7 13 4 7 1016.4 1016.3 0.0
15/07:00am 24.2 26.6 20.1 78 2.7 WSW 7 9 4 5 1016.5 1016.4 0.0
15/06:30am 23.1 25.4 19.9 82 2.1 WSW 7 9 4 5 1016.3 1016.2 0.0
15/06:00am 21.6 23.8 19.5 88 1.3 WSW 7 9 4 5 1016.0 1015.9 0.0
15/05:30am 21.2 22.8 19.1 88 1.3 WSW 9 13 5 7 1015.5 1015.4 0.0
15/05:00am 22.7 24.4 18.5 77 2.6 S 7 13 4 7 1015.1 1015.0 0.0
15/04:30am 24.2 25.2 19.5 75 3.0 E 13 17 7 9 1014.7 1014.7 0.0
15/04:00am 24.1 25.1 19.4 75 3.0 E 13 19 7 10 1014.6 1014.6 0.0
15/03:30am 24.1 24.7 19.4 75 3.0 E 15 24 8 13 1014.4 1014.4 0.0
15/03:00am 24.3 24.6 19.6 75 3.0 E 17 20 9 11 1014.5 1014.5 0.0
15/02:30am 24.5 24.8 19.6 74 3.2 E 17 20 9 11 1014.7 1014.7 0.0
15/02:00am 24.6 24.8 19.4 73 3.3 E 17 20 9 11 1015.0 1014.9 0.0
15/01:30am 24.9 26.3 19.5 72 3.5 ESE 11 17 6 9 1015.2 1015.1 0.0
15/01:00am 24.7 25.1 19.1 71 3.6 ESE 15 20 8 11 1015.5 1015.4 0.0
15/12:30am 24.7 25.7 19.5 73 3.3 ESE 13 19 7 10 1015.8 1015.7 0.0
15/12:00am 24.6 25.8 19.9 75 3.0 ESE 13 19 7 10 1015.9 1015.8 0.0
 
Date/Time
EST
Temp
°C
App
Temp
°C
Dew
Point
°C
Rel
Hum
%
Delta-T
°C
Wind Press
QNH
hPa
Press
MSL
hPa
Rain since
9am
mm
Dir  Spd
km/h
Gust
km/h
Spd
kts
Gust
kts
14/11:30pm 24.9 25.2 19.7 73 3.4 ESE 17 20 9 11 1016.3 1016.2 0.0
14/11:00pm 24.9 25.7 19.9 74 3.2 ESE 15 19 8 10 1016.4 1016.3 0.0
14/10:30pm 24.9 25.5 19.5 72 3.5 ESE 15 22 8 12 1016.6 1016.5 0.0
14/10:00pm 25.0 25.2 19.4 71 3.6 ESE 17 22 9 12 1016.7 1016.6 0.0
14/09:30pm 25.1 24.8 19.2 70 3.8 ESE 19 26 10 14 1016.6 1016.5 0.0
14/09:00pm 25.3 25.9 20.3 74 3.3 ESE 17 22 9 12 1016.6 1016.5 0.0
14/08:30pm 25.2 24.9 19.6 71 3.6 ESE 20 26 11 14 1016.6 1016.5 0.0
14/08:00pm 25.5 25.2 19.6 70 3.8 ESE 20 30 11 16 1016.5 1016.4 0.0
14/07:30pm 25.7 26.3 20.3 72 3.5 ESE 17 26 9 14 1016.3 1016.2 0.0
14/07:00pm 25.7 26.5 20.7 74 3.3 ESE 17 26 9 14 1016.2 1016.1 0.0
14/06:30pm 25.7 25.2 20.0 71 3.7 ESE 22 30 12 16 1016.0 1015.9 0.0
14/06:00pm 25.9 25.1 20.0 70 3.8 ESE 24 33 13 18 1015.7 1015.6 0.0
14/05:30pm 26.0 25.6 20.1 70 3.8 ESE 22 32 12 17 1015.5 1015.4 0.0
14/05:00pm 26.2 25.9 20.3 70 3.9 ESE 22 30 12 16 1015.1 1015.0 0.0
14/04:30pm 26.7 25.9 20.1 67 4.3 SE 24 30 13 16 1015.0 1014.9 0.0
14/04:00pm 27.8 27.1 19.6 61 5.3 SE 22 32 12 17 1014.8 1014.8 0.0
14/03:30pm 27.4 26.6 20.0 64 4.8 SE 24 35 13 19 1014.8 1014.8 0.0
14/03:00pm 28.1 26.5 20.1 62 5.2 SE 28 35 15 19 1015.1 1015.0 0.0
14/02:30pm 28.0 26.9 20.3 63 5.1 SE 26 33 14 18 1015.3 1015.2 0.0
14/02:00pm 28.8 27.6 20.0 59 5.8 SE 26 33 14 18 1015.6 1015.5 0.0
14/01:30pm 28.4 27.3 20.2 61 5.4 SE 26 35 14 19 1015.9 1015.8 0.0
14/01:00pm 28.7 27.2 20.2 60 5.6 SE 28 37 15 20 1016.0 1015.9 0.0
14/12:30pm 28.4 26.7 19.9 60 5.6 SE 28 35 15 19 1016.2 1016.1 0.0
14/12:00pm 28.3 26.8 20.3 62 5.3 SE 28 39 15 21 1016.5 1016.4 0.0
14/11:30am 28.5 26.9 20.0 60 5.6 SE 28 37 15 20 1016.8 1016.7 0.0
14/11:00am 27.6 25.5 18.9 59 5.6 SE 28 35 15 19 1017.0 1016.9 0.0
14/10:30am 27.9 26.5 19.7 61 5.3 SE 26 35 14 19 1017.0 1016.9 0.0
14/10:00am 27.7 26.0 19.8 62 5.1 SE 28 37 15 20 1017.0 1016.9 0.0
14/09:30am 27.3 26.0 19.9 64 4.8 SE 26 33 14 18 1017.0 1016.9 0.0
14/09:00am 27.1 25.9 20.0 65 4.6 SE 26 35 14 19 1016.9 1016.8 0.0
14/08:30am 27.2 25.4 19.5 62 5.0 SE 28 37 15 20 1016.9 1016.8 0.0
14/08:00am 26.7 25.5 20.1 67 4.3 SE 26 37 14 20 1016.8 1016.7 0.0
14/07:30am 26.3 24.6 19.9 68 4.2 SE 28 35 15 19 1016.7 1016.6 0.0
14/07:00am 26.2 25.5 20.3 70 3.8 SE 24 33 13 18 1016.4 1016.3 0.0
14/06:30am 25.6 23.8 20.4 73 3.4 SE 30 39 16 21 1016.3 1016.2 0.0
14/06:00am 25.1 24.6 19.9 73 3.4 SE 22 35 12 19 1015.9 1015.8 0.0
14/05:30am 25.0 23.6 18.9 69 3.9 SE 24 32 13 17 1015.7 1015.6 0.0
14/05:00am 24.9 23.4 18.6 68 4.0 SE 24 35 13 19 1015.5 1015.4 0.0
14/04:30am 24.9 22.6 18.4 67 4.1 SE 28 37 15 20 1015.3 1015.2 0.0
14/04:00am 25.0 23.2 18.7 68 4.0 SE 26 35 14 19 1015.1 1015.0 0.0
14/03:30am 25.0 23.2 18.7 68 4.0 SE 26 37 14 20 1015.0 1014.9 0.0
14/03:00am 24.8 23.1 19.0 70 3.7 SE 26 35 14 19 1014.8 1014.8 0.0
14/02:30am 24.7 23.2 19.5 73 3.3 SE 26 33 14 18 1014.8 1014.8 0.0
14/02:00am 24.5 22.9 20.0 76 2.9 SE 28 41 15 22 1015.1 1015.0 0.0
14/01:30am 25.0 23.3 18.9 69 3.9 SE 26 33 14 18 1015.4 1015.3 0.0
14/01:00am 25.0 23.0 19.1 70 3.8 SE 28 41 15 22 1015.8 1015.7 0.0
14/12:30am 25.2 22.6 18.6 67 4.2 SE 30 39 16 21 1016.2 1016.1 0.0
14/12:00am 25.0 22.8 18.7 68 4.0 SE 28 35 15 19 1016.6 1016.5 0.0
 
Date/Time
EST
Temp
°C
App
Temp
°C
Dew
Point
°C
Rel
Hum
%
Delta-T
°C
Wind Press
QNH
hPa
Press
MSL
hPa
Rain since
9am
mm
Dir  Spd
km/h
Gust
km/h
Spd
kts
Gust
kts
13/11:30pm 25.0 23.2 18.7 68 4.0 SE 26 37 14 20 1017.0 1016.9 0.0
13/11:00pm 25.2 23.3 18.6 67 4.2 SE 26 37 14 20 1017.3 1017.2 0.0
13/10:30pm 25.3 22.6 19.2 69 3.9 SE 32 41 17 22 1017.4 1017.3 0.0
13/10:00pm 25.4 23.5 18.6 66 4.3 SE 26 37 14 20 1017.4 1017.3 0.0
13/09:30pm 25.3 23.0 18.5 66 4.3 SE 28 37 15 20 1017.4 1017.3 0.0
13/09:00pm 25.4 22.3 18.3 65 4.5 SE 32 43 17 23 1017.3 1017.2 0.0
13/08:30pm 25.3 22.8 18.0 64 4.6 SE 28 37 15 20 1017.3 1017.2 0.0
13/08:00pm 25.3 23.0 18.5 66 4.3 SE 28 37 15 20 1017.2 1017.1 0.0
13/07:30pm 25.3 23.5 18.7 67 4.2 SE 26 35 14 19 1016.9 1016.8 0.0
13/07:00pm 25.5 23.2 18.4 65 4.5 SE 28 35 15 19 1016.7 1016.6 0.0
13/06:30pm 25.7 23.8 18.6 65 4.5 SE 26 39 14 21 1016.2 1016.1 0.0
13/06:00pm 26.1 24.3 18.8 64 4.7 SE 26 33 14 18 1016.0 1015.9 0.0
13/05:30pm 26.7 25.1 18.3 60 5.3 SE 24 35 13 19 1015.6 1015.5 0.0
13/05:00pm 27.1 24.9 18.7 60 5.4 SE 28 35 15 19 1015.3 1015.2 0.0
13/04:30pm 27.3 25.6 18.9 60 5.4 SE 26 35 14 19 1015.0 1014.9 0.0
13/04:00pm 27.5 24.6 17.9 55 6.1 SE 30 39 16 21 1014.8 1014.8 0.0
13/03:30pm 28.5 26.8 18.9 56 6.2 SE 26 37 14 20 1014.8 1014.8 0.0
13/03:00pm 28.0 25.9 19.0 58 5.8 SE 28 37 15 20 1015.0 1014.9 0.0
13/02:30pm 28.6 26.9 19.0 56 6.2 ESE 26 33 14 18 1015.2 1015.1 0.0
13/02:00pm 28.5 27.3 19.2 57 6.0 ESE 24 32 13 17 1015.3 1015.2 0.0
13/01:30pm 28.5 27.3 19.2 57 6.0 ESE 24 28 13 15 1015.5 1015.4 0.0
13/01:00pm 28.5 27.7 19.2 57 6.0 ESE 22 32 12 17 1015.7 1015.6 0.0
13/12:30pm 28.2 27.5 19.4 59 5.7 ESE 22 30 12 16 1016.1 1016.0 0.0
13/12:00pm 29.0 29.0 20.2 59 5.8 ESE 20 28 11 15 1016.4 1016.3 0.0
13/11:30am 28.2 27.8 19.4 59 5.7 SE 20 28 11 15 1016.6 1016.5 0.0
13/11:00am 28.3 27.5 19.2 57 5.9 SE 22 30 12 16 1016.8 1016.7 0.0
13/10:30am 28.7 27.8 19.9 59 5.8 SE 24 32 13 17 1017.0 1016.9 0.0
13/10:00am 28.6 27.8 19.2 56 6.1 SE 22 30 12 16 1016.9 1016.8 0.0

Latest Capital City Observations: Canberra | Sydney | Melbourne | Brisbane | Adelaide | Perth | Hobart | Darwin

Other Formats:

Comma delimited format used in spreadsheet applications
http://www.bom.gov.au/fwo/IDQ60901/IDQ60901.94569.axf

JavaScript Object Notation format (JSON) in row-major order
http://www.bom.gov.au/fwo/IDQ60901/IDQ60901.94569.json